Startpagina
METAR-TAF:

METAR-TAF

Vliegvelden :

McCall Municipal Airport

McCall, Idaho, Verenigde Staten

breedte: 44-53-00N, lengte: 116-05-58W, hoogte: 1530 m

Actueel weer

Dit bericht is 53 minuten geleden gemaakt, om 11:51 UTC
Wind 3 kt uit het zuiden
Temperatuur 2°C
Vochtigheid 80%
Druk 1015 hPa
Zicht: 16.1 km
Onbewolkt

METAR: KMYL 191151Z AUTO 18003KT 10SM CLR 02/M01 A2997 RMK AO2 SLP129 T00171006 10094 20006 56002

Tijdstip: 06:44 (12:44 UTC)

Verwachting

Dit bericht is 1 uur en het 8 minuten geleden gemaakt, om 11:36 UTC
Verwachting geldig van 19 om 12 UTC tot 20 om 12 UTC
Wind 3 kt uit variabele richting
Zicht: 10 km
Onbewolkt
Van 19 om 2000 UTC
Wind 8 kt uit het westnoordwesten met uitschieters tot 15 kt
Zicht: 10 km
Gebroken wolken op 12000 ft
Van 20 om 0300 UTC
Wind 6 kt uit het noorden
Zicht: 10 km
Onbewolkt

TAF: KMYL 191136Z 1912/2012 VRB03KT P6SM SKC FM192000 30008G15KT P6SM BKN120 FM200300 35006KT P6SM SKC

Waarnemingen en weersverwachtingen van meer dan 4000 vliegvelden (METAR en TAF).

De beschikbare stations zijn de gele en rode punten op de kaart.

Ga met uw muis naar het station om de naam te zien.

Klik dan om waarnemingen en weersverwachtingen te zien.

kaart wijzigen: klik op de groene knoppen met een zwart kruis om in te zoomen, op de groene knop met een streepje om uit te zoomen of op de groene pijlen voor aangrenzende kaarten.


METAR-TAF: